Time;durP1;ratioP1;P1;durP2;ratioP2;P2;SDS_P1;SDS_P2;PMS_P1;PMS_P2;Temp;Humidity;BMP_temperature;BMP_pressure;BME280_temperature;BME280_humidity;BME280_pressure;Samples;Min_cycle;Max_cycle;Signal;HPM_P1;HPM_P2
2022/06/07 00:00:41;;;;;;;11.63;5.38;;;;;;;14.22;100.00;94975.78;5063042;28;20142;-77
2022/06/07 00:03:08;;;;;;;21.73;4.95;;;;;;;14.06;100.00;94967.03;5066924;28;20044;-77
2022/06/07 00:05:40;;;;;;;16.70;5.00;;;;;;;14.08;100.00;94972.81;5061291;28;20045;-78
2022/06/07 00:08:07;;;;;;;7.95;5.47;;;;;;;14.15;100.00;94985.69;5061963;28;20812;-77
2022/06/07 00:10:34;;;;;;;6.65;4.95;;;;;;;13.95;100.00;94955.69;5061739;28;20044;-77
2022/06/07 00:13:01;;;;;;;15.80;5.03;;;;;;;14.06;100.00;94976.72;5044998;28;20037;-78
2022/06/07 00:15:28;;;;;;;11.98;4.63;;;;;;;13.92;100.00;94977.13;5057365;28;20052;-77
2022/06/07 00:17:55;;;;;;;9.35;4.53;;;;;;;13.87;100.00;94974.47;5058376;28;20126;-77
2022/06/07 00:20:22;;;;;;;8.60;4.50;;;;;;;13.79;100.00;94969.66;5058193;28;20318;-77
2022/06/07 00:22:49;;;;;;;8.68;5.40;;;;;;;13.66;100.00;94962.19;5057123;28;20058;-77
2022/06/07 00:25:17;;;;;;;12.77;5.22;;;;;;;13.77;100.00;94984.81;5059503;28;20052;-77
2022/06/07 00:27:44;;;;;;;9.75;4.72;;;;;;;13.65;100.00;94961.41;5058016;28;20127;-78
2022/06/07 00:30:12;;;;;;;11.38;5.60;;;;;;;13.73;100.00;94978.50;5076313;28;20044;-78
2022/06/07 00:32:40;;;;;;;8.13;4.53;;;;;;;13.66;100.00;94977.91;5040972;28;20045;-77
2022/06/07 00:35:08;;;;;;;12.68;5.78;;;;;;;13.69;100.00;94972.19;5061139;28;20052;-77
2022/06/07 00:37:34;;;;;;;5.90;4.97;;;;;;;13.54;100.00;94957.91;5056394;28;20041;-77
2022/06/07 00:40:03;;;;;;;19.60;5.60;;;;;;;13.66;100.00;94977.91;5060283;28;20044;-77
2022/06/07 00:42:30;;;;;;;7.05;5.10;;;;;;;13.67;100.00;94966.41;5056824;28;20051;-77
2022/06/07 00:44:57;;;;;;;8.73;4.75;;;;;;;13.62;100.00;94974.22;5059860;28;20513;-77
2022/06/07 00:47:27;;;;;;;9.40;4.65;;;;;;;13.58;100.00;94972.06;5036894;28;20047;-77
2022/06/07 00:49:59;;;;;;;7.18;4.68;;;;;;;13.60;100.00;94965.81;5055975;28;20072;-77
2022/06/07 00:52:29;;;;;;;7.25;4.55;;;;;;;13.65;100.00;94960.59;5056292;28;20045;-77
2022/06/07 00:54:57;;;;;;;9.77;4.32;;;;;;;13.59;100.00;94962.38;5060844;28;20052;-78
2022/06/07 00:57:35;;;;;;;7.28;5.22;;;;;;;13.56;100.00;94958.44;5057613;28;20084;-77
2022/06/07 01:00:09;;;;;;;9.07;4.75;;;;;;;13.58;100.00;94966.84;5055583;28;20048;-78
2022/06/07 01:02:38;;;;;;;6.03;4.47;;;;;;;13.51;100.00;94963.63;5061334;28;20101;-77
2022/06/07 01:05:06;;;;;;;16.55;5.28;;;;;;;13.55;100.00;94969.94;5055312;28;20151;-78
2022/06/07 01:13:07;;;;;;;8.20;5.65;;;;;;;13.40;100.00;94964.56;5059688;28;20060;-77
2022/06/07 01:15:35;;;;;;;6.90;4.75;;;;;;;13.50;100.00;94961.25;5056786;28;20044;-77
2022/06/07 01:18:05;;;;;;;7.43;5.47;;;;;;;13.43;100.00;94958.81;5057727;28;20045;-78
2022/06/07 01:20:37;;;;;;;6.53;4.80;;;;;;;13.47;100.00;94959.94;5080631;27;20056;-77
2022/06/07 01:23:05;;;;;;;9.63;5.43;;;;;;;13.43;100.00;94958.81;5060911;28;20139;-77
2022/06/07 01:25:32;;;;;;;14.15;6.28;;;;;;;13.43;100.00;94952.81;5055591;28;20040;-77
2022/06/07 01:28:01;;;;;;;12.98;5.40;;;;;;;13.49;100.00;94967.53;5060361;28;20134;-78
2022/06/07 01:30:28;;;;;;;5.75;4.53;;;;;;;13.47;100.00;94972.19;5056731;28;20460;-78
2022/06/07 01:32:56;;;;;;;6.78;5.03;;;;;;;13.48;100.00;94971.97;5055713;28;20036;-78
2022/06/07 01:35:23;;;;;;;9.90;5.15;;;;;;;13.38;100.00;94966.63;5060916;28;20052;-77
2022/06/07 01:37:50;;;;;;;8.07;5.40;;;;;;;13.41;100.00;94960.88;5058784;28;20044;-78
2022/06/07 01:43:16;;;;;;;9.35;5.95;;;;;;;13.62;100.00;94968.97;5023446;28;20430;-78
2022/06/07 01:45:44;;;;;;;9.70;5.43;;;;;;;13.60;100.00;94968.44;5056999;28;20059;-78
2022/06/07 01:48:11;;;;;;;7.90;5.78;;;;;;;13.70;100.00;94973.75;5055368;28;20155;-77
2022/06/07 01:50:38;;;;;;;7.97;6.05;;;;;;;13.83;100.00;94973.38;5075183;28;20051;-77
2022/06/07 01:53:05;;;;;;;11.20;5.47;;;;;;;13.88;100.00;94981.28;5054864;28;20033;-77
2022/06/07 01:55:32;;;;;;;7.32;5.20;;;;;;;13.87;100.00;94963.97;5070362;28;20098;-78
2022/06/07 01:58:06;;;;;;;8.65;5.68;;;;;;;13.92;100.00;94974.50;5055297;28;20048;-78
2022/06/07 02:00:34;;;;;;;7.07;5.40;;;;;;;13.89;100.00;94961.13;5055213;28;20072;-77
2022/06/07 02:03:01;;;;;;;8.15;5.45;;;;;;;13.96;100.00;94972.97;5055907;28;20044;-78
2022/06/07 02:05:28;;;;;;;10.40;6.43;;;;;;;13.99;100.00;94982.16;5057163;28;20140;-77
2022/06/07 02:07:58;;;;;;;11.18;6.18;;;;;;;13.94;100.00;94969.81;5069507;28;20751;-77
2022/06/07 02:10:35;;;;;;;10.23;6.45;;;;;;;13.91;100.00;94967.69;5055105;28;20170;-78
2022/06/07 02:13:08;;;;;;;12.73;8.82;;;;;;;13.99;100.00;94981.34;5052758;28;20057;-78
2022/06/07 02:15:35;;;;;;;17.58;9.75;;;;;;;13.84;100.00;94969.69;5057320;28;20144;-78
2022/06/07 02:18:02;;;;;;;20.75;13.32;;;;;;;14.00;100.00;94982.94;5057010;28;20511;-78
2022/06/07 02:20:43;;;;;;;17.02;12.13;;;;;;;13.86;100.00;94961.59;5056741;28;20052;-78
2022/06/07 02:23:10;;;;;;;20.77;9.85;;;;;;;13.94;100.00;94969.81;5069980;28;20033;-78
2022/06/07 02:25:43;;;;;;;21.33;9.48;;;;;;;14.02;100.00;94986.88;5056988;28;20048;-78
2022/06/07 02:28:23;;;;;;;13.15;8.75;;;;;;;13.94;100.00;94974.25;5067509;28;20055;-78
2022/06/07 02:30:52;;;;;;;10.65;8.35;;;;;;;13.90;100.00;94984.44;5066195;28;20045;-78
2022/06/07 02:33:19;;;;;;;16.30;7.57;;;;;;;13.83;100.00;94972.56;5065486;28;20540;-78
2022/06/07 02:35:46;;;;;;;13.77;7.65;;;;;;;13.84;100.00;94974.94;5068632;28;20048;-78
2022/06/07 02:38:14;;;;;;;11.73;7.05;;;;;;;13.89;100.00;94988.09;5064682;28;20044;-78
2022/06/07 02:40:43;;;;;;;9.93;5.50;;;;;;;13.94;100.00;95000.44;5068477;28;20071;-78
2022/06/07 02:43:09;;;;;;;10.73;6.22;;;;;;;13.94;100.00;95006.47;5064790;28;20035;-78
2022/06/07 02:45:36;;;;;;;8.20;5.90;;;;;;;13.88;100.00;94994.38;5071882;28;20040;-78
2022/06/07 02:48:04;;;;;;;12.65;6.10;;;;;;;13.86;100.00;94991.19;5060336;28;20048;-78
2022/06/07 02:50:33;;;;;;;15.85;5.72;;;;;;;13.89;100.00;95003.78;5059789;28;20587;-78
2022/06/07 02:53:00;;;;;;;9.85;6.35;;;;;;;13.87;100.00;94990.16;5092341;28;20064;-78
2022/06/07 02:55:31;;;;;;;12.18;6.63;;;;;;;13.92;100.00;94986.81;5057626;28;20037;-78
2022/06/07 02:58:05;;;;;;;10.68;7.07;;;;;;;13.81;100.00;94974.66;5075065;28;20133;-78
2022/06/07 03:00:33;;;;;;;12.55;7.18;;;;;;;13.93;100.00;94996.22;5056399;28;20052;-78
2022/06/07 03:03:01;;;;;;;11.60;7.70;;;;;;;13.95;100.00;94987.09;5055504;28;20037;-78
2022/06/07 03:05:29;;;;;;;18.92;8.02;;;;;;;13.88;100.00;94976.03;5057066;28;20045;-78
2022/06/07 03:08:01;;;;;;;23.27;8.55;;;;;;;13.99;100.00;94989.22;5052445;28;20768;-78
2022/06/07 03:10:29;;;;;;;20.95;8.98;;;;;;;13.94;100.00;94969.03;5059242;28;20076;-78
2022/06/07 03:12:56;;;;;;;13.55;8.30;;;;;;;14.07;100.00;94984.31;5069270;28;20048;-78
2022/06/07 03:15:26;;;;;;;14.65;8.77;;;;;;;14.09;100.00;94992.72;5054358;28;20602;-77
2022/06/07 03:17:54;;;;;;;14.02;9.02;;;;;;;14.12;100.00;94996.69;5056103;28;20040;-78
2022/06/07 03:20:30;;;;;;;14.90;9.10;;;;;;;14.14;100.00;95003.25;5058065;28;20098;-78
2022/06/07 03:22:57;;;;;;;12.40;8.13;;;;;;;14.05;100.00;94980.38;5056491;28;20087;-77
2022/06/07 03:25:26;;;;;;;14.18;7.90;;;;;;;14.12;100.00;94986.22;5063311;28;20041;-78
2022/06/07 03:27:59;;;;;;;12.15;7.20;;;;;;;14.24;100.00;94989.47;5057124;28;20036;-78
2022/06/07 03:30:27;;;;;;;12.05;8.38;;;;;;;14.31;100.00;95000.53;5062791;28;20040;-78
2022/06/07 03:32:54;;;;;;;11.25;7.75;;;;;;;14.36;100.00;95001.59;5063981;28;20039;-78
2022/06/07 03:35:25;;;;;;;15.70;8.13;;;;;;;14.46;100.00;95006.91;5064977;28;20047;-78
2022/06/07 03:37:54;;;;;;;16.88;8.15;;;;;;;14.39;100.00;95006.34;5059088;28;20472;-78
2022/06/07 03:43:07;;;;;;;12.10;8.85;;;;;;;14.31;100.00;94995.28;5075385;28;20777;-78
2022/06/07 03:45:36;;;;;;;14.55;7.15;;;;;;;14.37;100.00;94997.91;5055949;28;21257;-78
2022/06/07 03:48:03;;;;;;;21.58;8.98;;;;;;;14.48;100.00;95007.47;5062019;28;20044;-78
2022/06/07 03:50:31;;;;;;;17.20;7.72;;;;;;;14.39;100.00;94995.84;5061862;28;20098;-78
2022/06/07 03:52:58;;;;;;;11.75;6.35;;;;;;;14.29;100.00;95002.56;5061130;28;20020;-79
2022/06/07 03:55:26;;;;;;;13.52;6.88;;;;;;;14.39;100.00;95006.34;5044324;28;20251;-79
2022/06/07 03:58:05;;;;;;;16.83;6.80;;;;;;;14.49;100.00;95022.13;5060329;28;20076;-79
2022/06/07 04:00:32;;;;;;;11.30;7.65;;;;;;;14.49;100.00;95006.41;5075158;28;20051;-79
2022/06/07 04:03:08;;;;;;;10.80;8.30;;;;;;;14.66;100.00;95025.44;5067605;28;20883;-78
2022/06/07 04:05:42;;;;;;;11.50;7.05;;;;;;;14.76;100.00;95023.91;5063525;28;20078;-79
2022/06/07 04:08:11;;;;;;;13.77;7.68;;;;;;;14.77;100.00;95012.41;5054997;28;20037;-79
2022/06/07 04:11:00;;;;;;;13.10;7.13;;;;;;;14.84;100.00;95024.25;5064033;28;20044;-80
2022/06/07 04:13:43;;;;;;;15.80;7.93;;;;;;;14.97;100.00;95027.47;5054112;28;20047;-79
2022/06/07 04:16:14;;;;;;;16.67;6.68;;;;;;;14.88;100.00;95019.28;5074481;28;20048;-80
2022/06/07 04:18:51;;;;;;;13.85;6.85;;;;;;;14.75;100.00;95024.94;5060959;28;20059;-79
2022/06/07 04:21:20;;;;;;;8.93;6.47;;;;;;;14.84;100.00;95028.72;5043526;28;20040;-77
2022/06/07 04:23:47;;;;;;;8.18;5.95;;;;;;;14.93;100.00;95042.13;5063267;28;20068;-68
2022/06/07 04:26:25;;;;;;;10.95;6.35;;;;;;;14.99;100.00;95038.50;5063343;28;20044;-69
2022/06/07 04:28:54;;;;;;;15.80;6.97;;;;;;;15.00;100.00;95038.25;5087751;28;20042;-69
2022/06/07 04:31:26;;;;;;;10.07;6.60;;;;;;;15.00;100.00;95035.63;5067540;28;20054;-69
2022/06/07 04:34:01;;;;;;;14.10;6.43;;;;;;;15.01;100.00;95034.56;5079078;28;20408;-69
2022/06/07 04:36:29;;;;;;;16.27;8.35;;;;;;;15.05;100.00;95035.66;5080249;28;20068;-69
2022/06/07 04:39:00;;;;;;;13.65;7.45;;;;;;;15.12;100.00;95034.63;5059531;28;20059;-70
2022/06/07 04:41:35;;;;;;;14.35;8.30;;;;;;;15.17;100.00;95038.06;5061571;28;20057;-70
2022/06/07 04:44:05;;;;;;;14.35;9.48;;;;;;;15.25;100.00;95040.22;5071053;28;20726;-70
2022/06/07 04:46:33;;;;;;;14.98;8.88;;;;;;;15.32;100.00;95039.97;5061091;28;20044;-70
2022/06/07 04:49:03;;;;;;;15.90;8.20;;;;;;;15.39;100.00;95040.53;5054196;28;20842;-70
2022/06/07 04:51:35;;;;;;;20.63;9.63;;;;;;;15.43;100.00;95046.06;5057294;28;20044;-70
2022/06/07 04:54:10;;;;;;;17.85;8.18;;;;;;;15.53;100.00;95047.97;5061098;28;20159;-70
2022/06/07 04:56:41;;;;;;;17.75;8.50;;;;;;;15.60;100.00;95048.50;5059657;28;20048;-70
2022/06/07 04:59:13;;;;;;;16.50;10.02;;;;;;;15.72;100.00;95049.09;5058366;28;20171;-70
2022/06/07 05:01:50;;;;;;;21.73;9.38;;;;;;;15.81;100.00;95047.56;5060739;28;20063;-70
2022/06/07 05:04:22;;;;;;;16.67;8.77;;;;;;;15.91;100.00;95053.91;5073333;28;20048;-69
2022/06/07 05:06:51;;;;;;;20.50;11.80;;;;;;;15.93;100.00;95046.53;5064253;28;20033;-70
2022/06/07 05:09:30;;;;;;;25.02;11.48;;;;;;;16.06;100.00;95046.03;5057280;28;20052;-70
2022/06/07 05:12:04;;;;;;;13.23;8.35;;;;;;;16.32;100.00;95046.09;5058243;28;20810;-70
2022/06/07 05:14:36;;;;;;;14.27;8.75;;;;;;;16.51;100.00;95049.78;5074461;28;20048;-70
2022/06/07 05:17:04;;;;;;;14.00;10.02;;;;;;;16.69;100.00;95053.75;5078635;28;20813;-70
2022/06/07 05:19:34;;;;;;;23.55;11.43;;;;;;;16.86;100.00;95056.13;5059091;28;20029;-70
2022/06/07 05:22:07;;;;;;;18.52;11.88;;;;;;;17.02;100.00;95058.75;5062925;28;20166;-70
2022/06/07 05:24:40;;;;;;;20.00;12.07;;;;;;;17.11;100.00;95057.16;5057578;28;20078;-70
2022/06/07 05:27:08;;;;;;;19.00;10.50;;;;;;;17.14;100.00;95062.66;5062339;28;20616;-69
2022/06/07 05:29:55;;;;;;;28.63;9.80;;;;;;;17.23;100.00;95065.53;5059635;28;20052;-70
2022/06/07 05:32:50;;;;;;;11.50;9.05;;;;;;;17.34;100.00;95071.53;5054162;28;20047;-69
2022/06/07 05:35:28;;;;;;;12.60;8.75;;;;;;;17.39;100.00;95068.91;5063189;28;20056;-68
2022/06/07 05:38:08;;;;;;;11.50;8.07;;;;;;;17.39;100.00;95059.19;5064597;28;20149;-68
2022/06/07 05:40:36;;;;;;;13.25;8.57;;;;;;;17.37;100.00;95066.53;5061758;28;20046;-68
2022/06/07 05:43:05;;;;;;;14.23;8.00;;;;;;;17.32;100.00;95076.28;5061680;28;20032;-68
2022/06/07 05:45:37;;;;;;;12.23;8.77;;;;;;;17.53;100.00;95069.13;5060278;28;20052;-69
2022/06/07 05:48:11;;;;;;;16.50;8.02;;;;;;;17.62;100.00;95066.75;5060398;28;20041;-69
2022/06/07 05:50:48;;;;;;;16.00;7.78;;;;;;;17.65;100.00;95064.34;5061990;28;20044;-70
2022/06/07 05:53:18;;;;;;;13.20;7.45;;;;;;;17.75;100.00;95053.78;5060246;28;20098;-70
2022/06/07 05:55:46;;;;;;;13.32;8.27;;;;;;;17.91;100.00;95062.41;5064254;28;20683;-69
2022/06/07 05:58:14;;;;;;;10.85;7.10;;;;;;;17.96;100.00;95051.84;5055749;28;20573;-69
2022/06/07 06:00:41;;;;;;;12.68;7.38;;;;;;;18.12;100.00;95060.47;5062748;28;20043;-69
2022/06/07 06:03:10;;;;;;;9.77;7.47;;;;;;;18.40;100.00;95055.56;5059385;28;20044;-70
2022/06/07 06:05:48;;;;;;;11.95;7.88;;;;;;;18.61;100.00;95055.41;5062033;28;20144;-69
2022/06/07 06:11:17;;;;;;;10.80;7.30;;;;;;;19.17;100.00;95052.28;5062879;28;20063;-68
2022/06/07 06:13:55;;;;;;;8.85;7.20;;;;;;;19.40;100.00;95053.38;5056022;28;20123;-68
2022/06/07 06:16:22;;;;;;;14.48;5.95;;;;;;;19.57;100.00;95058.22;5065279;28;20201;-68
2022/06/07 06:18:56;;;;;;;10.00;5.95;;;;;;;19.78;100.00;95050.06;5054081;28;20410;-68
2022/06/07 06:21:37;;;;;;;8.95;6.07;;;;;;;19.97;100.00;95042.94;5074158;28;20041;-68
2022/06/07 06:24:08;;;;;;;8.65;6.53;;;;;;;20.38;100.00;95052.97;5055428;28;20040;-68
2022/06/07 06:26:36;;;;;;;11.93;6.53;;;;;;;20.48;100.00;95045.94;5078587;28;20048;-68
2022/06/07 06:29:03;;;;;;;6.72;5.82;;;;;;;20.66;100.00;95053.09;5059193;28;21549;-68
2022/06/07 06:31:30;;;;;;;10.55;5.80;;;;;;;20.74;100.00;95055.09;5058996;28;20058;-68
2022/06/07 06:33:58;;;;;;;9.68;5.00;;;;;;;20.70;100.00;95056.72;5070915;28;20610;-68
2022/06/07 06:36:29;;;;;;;7.38;5.57;;;;;;;20.75;100.00;95050.56;5057332;28;20048;-67
2022/06/07 06:38:59;;;;;;;9.02;4.95;;;;;;;20.82;100.00;95051.00;5064179;28;20123;-67
2022/06/07 06:41:32;;;;;;;6.93;4.40;;;;;;;20.93;98.56;95051.59;5056129;28;20037;-66
2022/06/07 06:44:01;;;;;;;7.00;5.07;;;;;;;21.03;98.57;95035.56;5060180;28;20029;-67
2022/06/07 06:46:39;;;;;;;5.10;4.32;;;;;;;21.14;97.41;95042.22;5059504;28;20056;-67
2022/06/07 06:49:11;;;;;;;7.80;4.90;;;;;;;21.18;96.24;95040.56;5059205;28;20057;-66
2022/06/07 06:51:41;;;;;;;5.55;4.15;;;;;;;21.19;95.03;95050.09;5087464;28;20040;-65
2022/06/07 06:54:13;;;;;;;5.50;4.13;;;;;;;21.27;94.19;95045.19;5059133;28;20028;-66
2022/06/07 06:56:48;;;;;;;6.60;4.88;;;;;;;21.45;94.56;95046.97;5054796;28;20755;-67
2022/06/07 06:59:23;;;;;;;4.65;4.10;;;;;;;21.63;94.08;95050.63;5056451;28;20090;-66
2022/06/07 07:01:54;;;;;;;4.32;3.53;;;;;;;21.77;91.02;95042.66;5065170;28;20044;-65
2022/06/07 07:04:24;;;;;;;5.60;4.40;;;;;;;21.83;92.00;95041.47;5070070;28;20047;-65
2022/06/07 07:06:52;;;;;;;6.00;4.07;;;;;;;22.04;89.21;95041.81;5072724;28;20048;-65
2022/06/07 07:09:24;;;;;;;4.85;3.45;;;;;;;21.77;88.87;95037.38;5060762;28;20781;-66
2022/06/07 07:11:58;;;;;;;4.65;4.07;;;;;;;21.83;89.18;95040.69;5058361;28;20053;-65
2022/06/07 07:14:51;;;;;;;5.05;3.90;;;;;;;21.84;88.63;95032.44;5059861;28;20051;-65
2022/06/07 07:17:30;;;;;;;5.63;3.95;;;;;;;21.83;88.41;95035.38;5057991;28;20048;-66
2022/06/07 07:19:59;;;;;;;4.95;4.10;;;;;;;21.95;91.21;95033.78;5045443;28;20082;-66
2022/06/07 07:22:29;;;;;;;4.88;4.13;;;;;;;22.16;89.50;95022.72;5055487;28;20048;-66
2022/06/07 07:24:56;;;;;;;5.20;4.07;;;;;;;22.38;90.89;95018.56;5060600;28;20132;-66
2022/06/07 07:27:24;;;;;;;5.80;3.78;;;;;;;22.54;89.14;95027.72;5059375;28;20040;-65
2022/06/07 07:29:51;;;;;;;4.50;3.95;;;;;;;22.76;89.24;95012.88;5044385;28;20068;-65
2022/06/07 07:32:23;;;;;;;6.30;4.70;;;;;;;22.90;87.12;95013.56;5057463;28;20040;-65
2022/06/07 07:34:53;;;;;;;5.28;4.50;;;;;;;22.98;84.76;95022.69;5058092;28;20048;-66
2022/06/07 07:37:20;;;;;;;6.10;4.55;;;;;;;22.96;85.05;95012.38;5057560;28;20079;-69
2022/06/07 07:39:53;;;;;;;7.30;5.05;;;;;;;23.14;86.21;95017.78;5056247;28;20050;-69
2022/06/07 07:42:22;;;;;;;6.57;4.63;;;;;;;23.31;84.47;95028.50;5060242;28;20055;-69
2022/06/07 07:45:07;;;;;;;7.80;4.63;;;;;;;23.21;78.52;95012.81;5058741;28;20064;-69
2022/06/07 07:47:35;;;;;;;6.85;4.97;;;;;;;23.27;77.24;95014.25;5061175;28;20051;-69
2022/06/07 07:50:03;;;;;;;7.68;5.32;;;;;;;23.36;76.88;95015.06;5057938;28;20075;-68
2022/06/07 07:52:32;;;;;;;10.32;4.88;;;;;;;23.43;76.47;95010.09;5063081;28;20640;-71
2022/06/07 07:55:05;;;;;;;5.78;4.25;;;;;;;23.65;77.40;95001.22;5058944;28;20051;-68
2022/06/07 07:57:32;;;;;;;7.05;5.07;;;;;;;23.75;74.85;95002.81;5058598;28;20148;-68
2022/06/07 08:00:00;;;;;;;4.28;3.88;;;;;;;23.85;74.75;94994.56;5073670;28;20068;-67
2022/06/07 08:02:28;;;;;;;9.48;4.35;;;;;;;24.12;74.10;94990.03;5062720;28;20410;-67
2022/06/07 08:05:08;;;;;;;5.07;4.40;;;;;;;24.36;73.27;94986.13;5057746;28;20060;-67
2022/06/07 08:07:35;;;;;;;4.75;4.20;;;;;;;24.53;73.15;94982.69;5062709;28;20140;-67
2022/06/07 08:10:22;;;;;;;5.13;4.25;;;;;;;24.72;71.88;94982.34;5056627;28;20101;-67
2022/06/07 08:12:55;;;;;;;5.72;4.85;;;;;;;24.34;71.74;94983.00;5059518;28;20043;-67
2022/06/07 08:15:23;;;;;;;6.85;5.25;;;;;;;24.08;71.07;94975.81;5060709;28;20063;-67
2022/06/07 08:17:52;;;;;;;5.00;3.95;;;;;;;23.88;70.72;94971.91;5059876;28;20517;-67
2022/06/07 08:20:20;;;;;;;5.55;4.47;;;;;;;23.90;74.06;94968.94;5055794;28;20048;-67
2022/06/07 08:22:48;;;;;;;6.03;4.93;;;;;;;23.72;71.19;94955.56;5059240;28;20033;-67
2022/06/07 08:25:18;;;;;;;7.32;4.35;;;;;;;23.92;73.76;94969.41;5063731;28;20863;-67
2022/06/07 08:27:45;;;;;;;4.93;3.92;;;;;;;23.89;71.18;94967.34;5041442;28;20044;-67
2022/06/07 08:30:13;;;;;;;4.00;3.40;;;;;;;24.17;71.85;94960.63;5064704;28;20044;-67
2022/06/07 08:32:43;;;;;;;10.25;3.90;;;;;;;24.71;72.96;94965.59;5060293;28;20048;-67
2022/06/07 08:38:00;;;;;;;4.53;3.17;;;;;;;25.16;63.04;94961.69;5062308;28;20040;-67
2022/06/07 08:40:43;;;;;;;3.80;2.92;;;;;;;25.60;65.40;94956.91;5064815;28;20520;-67
2022/06/07 08:43:20;;;;;;;4.88;2.53;;;;;;;25.99;62.80;94962.19;5060409;28;20037;-67
2022/06/07 08:45:48;;;;;;;4.00;2.90;;;;;;;26.16;56.61;94961.25;5063921;28;20102;-68
2022/06/07 08:48:17;;;;;;;3.20;2.75;;;;;;;26.21;59.28;94959.16;5060027;28;20062;-68
2022/06/07 08:50:48;;;;;;;4.50;2.95;;;;;;;26.41;57.28;94952.22;5061742;28;20032;-68
2022/06/07 08:53:20;;;;;;;3.47;2.50;;;;;;;26.75;56.26;94950.34;5061835;28;20033;-67
2022/06/07 08:55:48;;;;;;;4.63;2.95;;;;;;;26.97;57.62;94951.03;5061492;28;20044;-68
2022/06/07 08:58:19;;;;;;;3.15;2.80;;;;;;;26.93;55.92;94944.81;5057455;28;20869;-68
2022/06/07 09:00:57;;;;;;;4.35;2.88;;;;;;;27.03;57.95;94947.84;5058943;28;20101;-67
2022/06/07 09:03:36;;;;;;;2.92;2.50;;;;;;;26.70;55.07;94942.53;5057993;28;20086;-67
2022/06/07 09:06:17;;;;;;;4.38;2.83;;;;;;;26.71;56.73;94933.44;5061089;28;20044;-68
2022/06/07 09:08:48;;;;;;;2.90;2.38;;;;;;;27.22;57.42;94939.25;5057828;28;20048;-66
2022/06/07 09:14:17;;;;;;;3.47;2.80;;;;;;;28.00;52.94;94926.72;5061179;28;20040;-67
2022/06/07 09:16:44;;;;;;;2.90;2.45;;;;;;;28.10;51.46;94935.38;5060650;28;20131;-67
2022/06/07 09:19:16;;;;;;;3.47;2.88;;;;;;;27.85;50.50;94930.06;5057050;28;21579;-67
2022/06/07 09:21:45;;;;;;;3.85;2.70;;;;;;;27.44;50.07;94934.59;5090285;27;20053;-67
2022/06/07 09:24:42;;;;;;;3.42;2.72;;;;;;;26.86;48.56;94930.09;5058551;28;20044;-67
2022/06/07 09:27:17;;;;;;;4.32;2.78;;;;;;;27.02;51.38;94926.78;5048871;28;20052;-68
2022/06/07 09:29:59;;;;;;;7.70;3.10;;;;;;;26.87;52.52;94920.97;5057884;28;20171;-68
2022/06/07 09:32:31;;;;;;;5.38;3.45;;;;;;;26.84;50.96;94924.31;5058910;28;20047;-68
2022/06/07 09:35:14;;;;;;;6.43;3.05;;;;;;;26.62;51.56;94900.69;5058185;28;20061;-68
2022/06/07 09:37:50;;;;;;;7.22;3.20;;;;;;;26.76;52.46;94914.50;5056888;28;20056;-67
2022/06/07 09:40:28;;;;;;;4.00;3.20;;;;;;;26.65;51.55;94919.50;5056379;28;20044;-67
2022/06/07 09:43:18;;;;;;;4.35;3.25;;;;;;;26.61;52.70;94915.91;5065418;28;20063;-67
2022/06/07 09:45:45;;;;;;;4.10;3.30;;;;;;;26.47;52.76;94913.53;5065993;28;20041;-71
2022/06/07 09:48:25;;;;;;;7.47;2.65;;;;;;;26.39;51.61;94905.63;5058964;28;20721;-69
2022/06/07 09:51:02;;;;;;;4.60;3.40;;;;;;;26.01;51.90;94906.59;5058957;28;20044;-68
2022/06/07 09:53:41;;;;;;;4.38;3.35;;;;;;;25.98;52.36;94893.91;5063735;28;20033;-69
2022/06/07 09:56:25;;;;;;;4.68;2.95;;;;;;;26.04;54.20;94906.72;5060795;28;20033;-67
2022/06/07 09:59:16;;;;;;;3.60;3.15;;;;;;;25.98;51.21;94908.00;5058129;28;20059;-67
2022/06/07 10:01:59;;;;;;;7.82;2.97;;;;;;;25.73;52.57;94907.88;5062217;28;20051;-67
2022/06/07 10:04:41;;;;;;;5.30;3.85;;;;;;;25.12;53.01;94910.09;5063867;28;20105;-67
2022/06/07 10:07:31;;;;;;;4.47;3.00;;;;;;;25.43;53.23;94903.72;5058496;28;20335;-67
2022/06/07 10:10:24;;;;;;;3.92;3.22;;;;;;;25.49;53.11;94891.75;5056441;28;20043;-67
2022/06/07 10:12:54;;;;;;;4.07;3.13;;;;;;;25.81;55.31;94882.25;5024475;28;20055;-67
2022/06/07 10:15:44;;;;;;;6.72;3.22;;;;;;;26.30;52.79;94881.66;5061303;28;20047;-67
2022/06/07 10:18:20;;;;;;;3.53;2.58;;;;;;;27.16;51.02;94892.47;5054898;28;20040;-67
2022/06/07 10:21:09;;;;;;;4.57;2.95;;;;;;;27.82;47.95;94887.91;5056511;28;20510;-68
2022/06/07 10:23:45;;;;;;;3.80;2.95;;;;;;;28.42;45.98;94891.47;5053957;28;20059;-67
2022/06/07 10:26:18;;;;;;;3.25;2.92;;;;;;;28.69;45.27;94880.31;5061215;28;20437;-68
2022/06/07 10:29:18;;;;;;;4.97;4.20;;;;;;;28.42;41.96;94885.34;5057112;28;20700;-68
2022/06/07 10:32:01;;;;;;;3.45;2.67;;;;;;;29.06;42.50;94888.81;5041963;28;20052;-68
2022/06/07 10:34:37;;;;;;;3.27;2.80;;;;;;;29.44;40.01;94887.44;5059310;28;20724;-74
2022/06/07 10:37:14;;;;;;;3.15;2.60;;;;;;;29.33;41.12;94875.66;5057837;28;20041;-72
2022/06/07 10:39:43;;;;;;;2.92;2.55;;;;;;;29.95;40.28;94867.00;5053981;28;20040;-69
2022/06/07 10:42:50;;;;;;;4.13;2.67;;;;;;;30.51;39.02;94869.22;5059109;28;20040;-68
2022/06/07 10:45:22;;;;;;;3.00;2.35;;;;;;;31.15;34.57;94866.00;5087370;28;20044;-68
2022/06/07 10:47:56;;;;;;;3.65;2.47;;;;;;;31.30;34.31;94867.00;5059288;28;20410;-68
2022/06/07 10:50:25;;;;;;;;;;;;;;;31.13;34.25;94873.66;5056277;28;20047;-68
2022/06/07 10:53:01;;;;;;;3.45;2.63;;;;;;;30.72;34.51;94865.31;5059466;28;19928;-68
2022/06/07 10:55:39;;;;;;;3.20;2.70;;;;;;;30.22;37.83;94852.56;5056532;28;20048;-68
2022/06/07 10:58:29;;;;;;;4.65;2.50;;;;;;;30.16;35.40;94856.69;5057434;28;20540;-68
2022/06/07 11:01:23;;;;;;;2.40;2.20;;;;;;;30.09;37.33;94845.81;5056648;28;20033;-68
2022/06/07 11:03:56;;;;;;;6.30;2.92;;;;;;;30.34;35.40;94845.47;5058138;28;20209;-68
2022/06/07 11:09:37;;;;;;;3.15;2.47;;;;;;;31.51;33.86;94845.78;5060248;28;20059;-68
2022/06/07 11:12:37;;;;;;;3.00;2.60;;;;;;;31.93;30.67;94849.38;5056796;28;20044;-68
2022/06/07 11:15:18;;;;;;;2.90;2.15;;;;;;;32.36;32.13;94844.44;5049554;28;20036;-68
2022/06/07 11:17:47;;;;;;;8.20;2.65;;;;;;;32.32;31.87;94844.41;5053231;28;20097;-68
2022/06/07 11:20:14;;;;;;;3.30;2.45;;;;;;;32.12;31.92;94846.50;5059101;28;20510;-67
2022/06/07 11:22:54;;;;;;;2.72;2.10;;;;;;;31.67;31.51;94837.50;5054364;28;20053;-67
2022/06/07 11:25:30;;;;;;;6.85;2.60;;;;;;;31.12;32.06;94839.84;5057696;28;20094;-67
2022/06/07 11:28:03;;;;;;;6.82;2.83;;;;;;;31.19;34.56;94839.94;5052786;28;20051;-67
2022/06/07 11:30:37;;;;;;;6.70;3.30;;;;;;;31.54;32.21;94834.28;5058449;28;20055;-70
2022/06/07 11:33:52;;;;;;;5.75;3.63;;;;;;;32.36;30.42;94830.97;5054880;28;20060;-70
2022/06/07 11:36:25;;;;;;;;;;;;;;;32.85;29.25;94832.56;4999581;28;20045;-70
2022/06/07 11:38:57;;;;;;;3.50;2.40;;;;;;;33.23;28.46;94830.50;5015011;28;20043;-69
2022/06/07 11:41:39;;;;;;;3.17;2.70;;;;;;;33.59;29.59;94832.63;5043644;28;20059;-69
2022/06/07 11:44:12;;;;;;;4.38;3.03;;;;;;;33.88;28.88;94826.19;5060511;28;20040;-69
2022/06/07 11:46:46;;;;;;;3.85;2.65;;;;;;;34.22;28.01;94825.16;5064139;28;20754;-69
2022/06/07 11:49:24;;;;;;;6.40;2.40;;;;;;;34.42;25.91;94820.91;5061437;28;20055;-69
2022/06/07 11:51:53;;;;;;;3.30;2.30;;;;;;;34.22;26.10;94817.03;5061473;28;20920;-70
2022/06/07 11:54:26;;;;;;;5.38;2.92;;;;;;;33.82;26.61;94821.56;5058757;28;20043;-69
2022/06/07 11:56:57;;;;;;;2.40;2.13;;;;;;;33.81;26.69;94818.06;5060916;28;20040;-70
2022/06/07 11:59:25;;;;;;;2.22;2.03;;;;;;;33.81;26.26;94814.59;5059965;28;20033;-70
2022/06/07 12:01:55;;;;;;;3.05;2.05;;;;;;;34.43;25.72;94808.97;5060511;28;20044;-70
2022/06/07 12:04:47;;;;;;;2.00;1.80;;;;;;;34.88;26.96;94807.81;5058980;28;20125;-70
2022/06/07 12:07:42;;;;;;;1.88;1.55;;;;;;;34.19;25.83;94801.59;5060429;28;20044;-70
2022/06/07 12:10:18;;;;;;;3.13;1.80;;;;;;;33.91;26.32;94803.06;5058743;28;20044;-68
2022/06/07 12:13:16;;;;;;;2.97;1.60;;;;;;;33.47;27.51;94801.31;5059415;28;20036;-70
2022/06/07 12:15:51;;;;;;;2.15;1.95;;;;;;;33.04;27.33;94809.16;5049290;28;20063;-70